createdAt,value
2022-12-08T00:00:15.595Z,36.90
2022-12-08T00:03:39.692Z,37.00
2022-12-08T00:07:04.941Z,37.60
2022-12-08T00:14:15.716Z,37.00
2022-12-08T00:17:41.034Z,37.10
2022-12-08T00:20:51.782Z,37.10
2022-12-08T00:24:21.799Z,37.00
2022-12-08T00:27:45.822Z,37.20
2022-12-08T00:31:21.895Z,37.20
2022-12-08T00:34:57.883Z,37.20
2022-12-08T00:38:27.912Z,37.10
2022-12-08T00:41:57.940Z,37.10
2022-12-08T00:45:34.003Z,36.90
2022-12-08T00:49:04.002Z,37.00
2022-12-08T00:52:34.028Z,37.00
2022-12-08T00:55:52.056Z,37.20
2022-12-08T00:59:22.087Z,37.10
2022-12-08T01:02:52.185Z,37.20
2022-12-08T01:06:34.142Z,37.20
2022-12-08T01:09:58.174Z,37.20
2022-12-08T01:13:41.571Z,37.10
2022-12-08T01:17:11.633Z,37.10
2022-12-08T01:20:37.423Z,37.20
2022-12-08T01:24:10.297Z,37.30
2022-12-08T01:27:52.325Z,37.40
2022-12-08T01:31:22.486Z,37.30
2022-12-08T01:34:47.767Z,37.30
2022-12-08T01:38:16.414Z,37.20
2022-12-08T01:41:58.445Z,37.30
2022-12-08T01:45:38.740Z,37.20
2022-12-08T01:49:10.501Z,37.40
2022-12-08T01:52:41.932Z,37.30
2022-12-08T01:56:16.558Z,37.30
2022-12-08T01:59:47.986Z,37.30
2022-12-08T02:03:22.618Z,37.40
2022-12-08T02:06:42.055Z,37.40
2022-12-08T02:10:16.676Z,37.20
2022-12-08T02:13:42.115Z,37.40
2022-12-08T02:17:06.182Z,37.30
2022-12-08T02:20:48.177Z,37.50
2022-12-08T02:24:06.256Z,37.30
2022-12-08T02:27:46.829Z,37.90
2022-12-08T02:31:16.897Z,37.30
2022-12-08T02:34:58.898Z,37.40
2022-12-08T02:38:34.933Z,37.30
2022-12-08T02:42:04.967Z,37.20
2022-12-08T02:45:35.002Z,37.30
2022-12-08T03:20:53.349Z,37.30
2022-12-08T03:28:42.771Z,37.30
2022-12-08T03:32:53.448Z,37.30
2022-12-08T04:18:55.084Z,37.00
2022-12-08T04:43:25.315Z,37.70
2022-12-08T04:50:54.992Z,38.10
2022-12-08T04:54:55.427Z,38.30
2022-12-08T04:58:43.463Z,38.40
2022-12-08T05:02:06.582Z,38.50
2022-12-08T05:05:36.491Z,38.70
2022-12-08T05:08:55.562Z,38.80
2022-12-08T05:19:46.997Z,39.00
2022-12-08T05:22:38.349Z,39.00
2022-12-08T05:25:16.660Z,39.20
2022-12-08T05:46:12.475Z,39.30
2022-12-08T05:49:02.580Z,39.20
2022-12-08T05:51:40.566Z,39.30
2022-12-08T05:57:34.863Z,39.20
2022-12-08T06:01:11.158Z,39.40
2022-12-08T06:04:48.710Z,39.60
2022-12-08T06:43:32.359Z,40.00
2022-12-08T06:46:31.512Z,40.20
2022-12-08T06:49:35.603Z,40.00
2022-12-08T06:52:40.815Z,40.10
2022-12-08T06:56:02.820Z,40.20
2022-12-08T06:58:52.773Z,40.10
2022-12-08T07:01:42.250Z,40.00
2022-12-08T07:21:53.953Z,41.10
2022-12-08T07:24:49.785Z,40.50
2022-12-08T07:27:37.809Z,40.50
2022-12-08T07:30:31.877Z,40.50
2022-12-08T07:33:24.201Z,40.50
2022-12-08T10:52:41.926Z,36.30
2022-12-08T10:55:25.643Z,36.30
2022-12-08T10:57:54.538Z,36.20
2022-12-08T11:00:52.584Z,36.10
2022-12-08T11:04:19.633Z,36.10
2022-12-08T11:11:32.412Z,35.90
2022-12-08T11:14:23.434Z,35.60
2022-12-08T11:17:43.338Z,35.50
2022-12-08T11:20:56.865Z,35.40
2022-12-08T11:25:08.626Z,35.30
2022-12-08T11:28:29.897Z,35.00
2022-12-08T11:35:59.935Z,35.00
2022-12-08T11:39:11.886Z,34.80
2022-12-08T11:52:54.439Z,34.70
2022-12-08T11:55:49.847Z,34.60
2022-12-08T11:58:33.454Z,34.10
2022-12-08T12:01:03.616Z,34.30
2022-12-08T12:03:51.682Z,34.70
2022-12-08T12:07:02.389Z,34.90
2022-12-08T12:10:08.301Z,34.90
2022-12-08T12:13:12.340Z,34.70
2022-12-08T12:17:15.384Z,34.70
2022-12-08T12:20:17.718Z,34.50
2022-12-08T12:23:38.036Z,34.40
2022-12-08T12:30:29.221Z,34.10
2022-12-08T12:33:04.935Z,34.30
2022-12-08T12:36:08.282Z,33.90
2022-12-08T12:39:19.830Z,34.10
2022-12-08T12:42:22.145Z,34.30
2022-12-08T12:45:50.780Z,34.50
2022-12-08T12:48:30.797Z,34.50
2022-12-08T12:51:00.478Z,34.40
2022-12-08T12:53:52.215Z,34.50
2022-12-08T12:56:49.528Z,34.30
2022-12-08T12:59:53.316Z,34.30
2022-12-08T13:02:27.723Z,34.30
2022-12-08T13:05:04.336Z,34.50
2022-12-08T13:07:35.529Z,34.90
2022-12-08T13:10:14.291Z,35.00
2022-12-08T13:12:44.871Z,34.90
2022-12-08T13:15:19.496Z,34.90
2022-12-08T13:17:51.070Z,34.70
2022-12-08T13:20:23.904Z,34.80
2022-12-08T13:23:14.863Z,34.70
2022-12-08T13:25:52.437Z,34.80
2022-12-08T13:28:27.614Z,34.90
2022-12-08T13:30:58.138Z,34.80
2022-12-08T13:33:30.610Z,34.80
2022-12-08T13:36:14.293Z,34.90
2022-12-08T13:38:45.991Z,35.00
2022-12-08T13:41:20.035Z,35.20
2022-12-08T13:44:24.822Z,35.30
2022-12-08T13:47:09.787Z,35.30
2022-12-08T13:58:26.019Z,35.30
2022-12-08T14:01:05.822Z,35.30
2022-12-08T14:03:58.326Z,35.20
2022-12-08T14:06:37.943Z,35.30
2022-12-08T14:09:13.215Z,35.20
2022-12-08T14:11:43.982Z,35.30
2022-12-08T14:14:32.574Z,35.40
2022-12-08T14:17:07.319Z,35.30
2022-12-08T14:19:36.658Z,35.30
2022-12-08T14:22:11.941Z,35.30
2022-12-08T14:24:45.282Z,35.60
2022-12-08T14:27:28.028Z,35.70
2022-12-08T14:30:29.153Z,36.50
2022-12-08T14:36:25.422Z,35.90
2022-12-08T14:39:25.233Z,35.80
2022-12-08T14:45:48.716Z,36.20
2022-12-08T14:49:27.481Z,36.40
2022-12-08T14:53:16.532Z,36.10
2022-12-08T14:57:09.384Z,36.20
2022-12-08T15:01:08.429Z,36.40
2022-12-08T15:03:47.251Z,36.50
2022-12-08T15:06:50.453Z,36.60
2022-12-08T16:01:57.767Z,37.10
2022-12-08T16:05:41.594Z,37.10
2022-12-08T16:08:56.246Z,37.00
2022-12-08T16:12:10.649Z,37.00
2022-12-08T16:19:02.461Z,36.80
2022-12-08T16:25:36.359Z,36.60
2022-12-08T16:28:54.458Z,36.60
2022-12-08T16:31:45.677Z,36.50
2022-12-08T16:35:09.988Z,36.70
2022-12-08T16:38:22.594Z,36.50
2022-12-08T16:41:33.585Z,36.40
2022-12-08T16:44:40.667Z,36.40
2022-12-08T16:47:52.724Z,35.90
2022-12-08T16:51:34.736Z,35.40
2022-12-08T16:54:58.167Z,35.50
2022-12-08T16:58:04.797Z,35.80
2022-12-08T17:01:22.931Z,35.90
2022-12-08T17:04:58.910Z,35.50
2022-12-08T17:08:40.900Z,35.80
2022-12-08T17:12:10.935Z,35.60
2022-12-08T17:15:40.970Z,35.50
2022-12-08T17:19:05.010Z,35.30
2022-12-08T17:22:22.430Z,35.40
2022-12-08T17:26:05.070Z,35.40
2022-12-08T17:29:41.106Z,35.50
2022-12-08T17:33:35.144Z,35.90
2022-12-08T17:37:05.192Z,36.10
2022-12-08T17:40:35.222Z,36.30
2022-12-08T17:44:17.259Z,35.90
2022-12-08T17:47:23.294Z,36.50
2022-12-08T17:50:41.322Z,36.20
2022-12-08T17:54:10.708Z,36.00
2022-12-08T17:57:35.393Z,35.70
2022-12-08T18:01:11.467Z,35.90
2022-12-08T18:04:35.459Z,35.90
2022-12-08T18:07:59.563Z,36.10
2022-12-08T18:11:29.531Z,36.00
2022-12-08T18:14:59.568Z,36.20
2022-12-08T18:18:38.197Z,36.20
2022-12-08T18:21:47.632Z,36.00
2022-12-08T18:25:10.981Z,36.00
2022-12-08T18:31:59.728Z,36.50
2022-12-08T18:52:05.219Z,36.60
2022-12-08T19:07:28.021Z,36.80
2022-12-08T19:10:57.432Z,36.70
2022-12-08T19:14:33.466Z,36.50
2022-12-08T19:17:57.489Z,36.40
2022-12-08T19:21:27.517Z,36.30
2022-12-08T19:25:03.549Z,36.10
2022-12-08T19:28:20.708Z,36.00
2022-12-08T19:31:29.624Z,36.00
2022-12-08T19:34:57.628Z,36.00
2022-12-08T19:38:27.665Z,36.20
2022-12-08T19:42:03.702Z,36.20
2022-12-08T19:45:14.448Z,36.20
2022-12-08T20:12:24.447Z,36.20
2022-12-08T20:16:04.116Z,36.00
2022-12-08T20:19:28.080Z,36.00
2022-12-08T20:22:48.253Z,36.20
2022-12-08T20:26:14.094Z,36.20
2022-12-08T20:29:34.139Z,36.30
2022-12-08T20:33:04.235Z,36.20
2022-12-08T20:36:22.229Z,36.30
2022-12-08T20:39:40.278Z,36.30
2022-12-08T20:43:10.318Z,36.30
2022-12-08T20:46:34.463Z,36.30
2022-12-08T20:50:10.616Z,36.40
2022-12-08T20:53:34.465Z,36.30
2022-12-08T20:56:58.492Z,36.20
2022-12-08T21:00:23.792Z,36.10
2022-12-08T21:03:52.884Z,36.20
2022-12-08T21:07:28.698Z,36.00
2022-12-08T21:11:15.662Z,36.30
2022-12-08T21:14:40.656Z,36.30
2022-12-08T21:18:05.915Z,36.40
2022-12-08T21:21:46.717Z,36.40
2022-12-08T21:25:28.816Z,36.40
2022-12-08T21:28:52.895Z,36.50
2022-12-08T21:32:16.394Z,36.20
2022-12-08T21:35:40.967Z,36.10
2022-12-08T21:39:04.845Z,36.20
2022-12-08T21:42:46.984Z,36.30
2022-12-08T21:46:16.832Z,36.20
2022-12-08T21:49:47.126Z,36.50
2022-12-08T21:53:35.128Z,36.40
2022-12-08T21:56:59.022Z,36.40
2022-12-08T22:00:35.163Z,36.30
2022-12-08T22:04:05.149Z,36.70
2022-12-08T22:07:17.058Z,36.60
2022-12-08T22:10:47.326Z,36.50
2022-12-08T22:14:14.482Z,36.40
2022-12-08T22:17:47.259Z,36.60
2022-12-08T22:21:17.236Z,36.40
2022-12-08T22:24:47.217Z,36.60
2022-12-08T22:28:29.245Z,36.30
2022-12-08T22:31:54.701Z,36.50
2022-12-08T22:35:23.318Z,36.30
2022-12-08T22:38:54.712Z,36.60
2022-12-08T22:42:18.596Z,36.50
2022-12-08T22:45:24.826Z,36.70
2022-12-08T22:48:53.429Z,36.50
2022-12-08T22:52:24.717Z,36.60
2022-12-08T22:55:53.750Z,36.60
2022-12-08T22:59:19.023Z,36.60
2022-12-08T23:02:46.559Z,36.70
2022-12-08T23:10:30.872Z,36.50
2022-12-08T23:17:54.690Z,36.70
2022-12-08T23:35:55.327Z,36.80
2022-12-08T23:39:25.193Z,36.70
2022-12-08T23:50:01.404Z,36.60
